sensor_id;sensor_type;location;lat;lon;timestamp;pressure;altitude;pressure_sealevel;temperature;humidity
61900;BME280;47853;55.890;37.664;2024-03-17T00:01:09;99526.44;;;5.48;67.23
61900;BME280;47853;55.890;37.664;2024-03-17T00:03:34;99515.22;;;5.15;69.80
61900;BME280;47853;55.890;37.664;2024-03-17T00:06:00;99511.44;;;5.39;67.83
61900;BME280;47853;55.890;37.664;2024-03-17T00:08:27;99508.94;;;5.69;66.51
61900;BME280;47853;55.890;37.664;2024-03-17T00:10:53;99502.41;;;4.68;71.81
61900;BME280;47853;55.890;37.664;2024-03-17T00:13:19;99522.97;;;5.17;70.50
61900;BME280;47853;55.890;37.664;2024-03-17T00:15:44;99508.53;;;5.42;67.57
61900;BME280;47853;55.890;37.664;2024-03-17T00:18:10;99512.38;;;4.64;71.90
61900;BME280;47853;55.890;37.664;2024-03-17T00:20:36;99500.84;;;5.29;69.55
61900;BME280;47853;55.890;37.664;2024-03-17T00:23:02;99502.63;;;5.50;67.68
61900;BME280;47853;55.890;37.664;2024-03-17T00:25:27;99504.47;;;4.86;71.89
61900;BME280;47853;55.890;37.664;2024-03-17T00:27:53;99501.91;;;5.17;69.69
61900;BME280;47853;55.890;37.664;2024-03-17T00:30:18;99505.63;;;5.14;69.23
61900;BME280;47853;55.890;37.664;2024-03-17T00:32:44;99491.25;;;5.18;68.39
61900;BME280;47853;55.890;37.664;2024-03-17T00:35:10;99501.44;;;5.33;68.17
61900;BME280;47853;55.890;37.664;2024-03-17T00:37:38;99497.53;;;5.06;68.30
61900;BME280;47853;55.890;37.664;2024-03-17T00:40:04;99486.06;;;5.38;69.04
61900;BME280;47853;55.890;37.664;2024-03-17T00:42:30;99490.78;;;4.49;71.70
61900;BME280;47853;55.890;37.664;2024-03-17T00:44:56;99502.09;;;4.83;72.00
61900;BME280;47853;55.890;37.664;2024-03-17T00:47:21;99495.13;;;4.72;72.84
61900;BME280;47853;55.890;37.664;2024-03-17T00:49:47;99481.50;;;4.88;72.37
61900;BME280;47853;55.890;37.664;2024-03-17T00:52:12;99483.28;;;5.08;70.25
61900;BME280;47853;55.890;37.664;2024-03-17T00:54:38;99496.06;;;5.44;68.33
61900;BME280;47853;55.890;37.664;2024-03-17T00:57:03;99487.16;;;5.04;70.11
61900;BME280;47853;55.890;37.664;2024-03-17T00:59:28;99489.94;;;4.16;75.63
61900;BME280;47853;55.890;37.664;2024-03-17T01:01:54;99492.16;;;4.86;72.53
61900;BME280;47853;55.890;37.664;2024-03-17T01:04:19;99465.44;;;4.48;73.59
61900;BME280;47853;55.890;37.664;2024-03-17T01:06:46;99489.63;;;4.63;73.57
61900;BME280;47853;55.890;37.664;2024-03-17T01:09:11;99480.44;;;4.37;74.27
61900;BME280;47853;55.890;37.664;2024-03-17T01:11:37;99467.59;;;4.76;74.09
61900;BME280;47853;55.890;37.664;2024-03-17T01:14:02;99474.88;;;4.93;72.34
61900;BME280;47853;55.890;37.664;2024-03-17T01:16:28;99473.63;;;4.67;72.62
61900;BME280;47853;55.890;37.664;2024-03-17T01:18:53;99461.53;;;4.43;74.07
61900;BME280;47853;55.890;37.664;2024-03-17T01:21:20;99480.00;;;5.16;71.22
61900;BME280;47853;55.890;37.664;2024-03-17T01:23:48;99468.25;;;5.20;69.50
61900;BME280;47853;55.890;37.664;2024-03-17T01:26:13;99467.06;;;5.03;72.10
61900;BME280;47853;55.890;37.664;2024-03-17T01:28:38;99475.16;;;4.69;72.17
61900;BME280;47853;55.890;37.664;2024-03-17T01:31:07;99477.50;;;5.15;71.56
61900;BME280;47853;55.890;37.664;2024-03-17T01:33:32;99459.72;;;5.38;69.70
61900;BME280;47853;55.890;37.664;2024-03-17T01:35:58;99472.00;;;4.97;73.16
61900;BME280;47853;55.890;37.664;2024-03-17T01:38:23;99455.75;;;4.49;74.49
61900;BME280;47853;55.890;37.664;2024-03-17T01:40:49;99463.84;;;5.00;72.91
61900;BME280;47853;55.890;37.664;2024-03-17T01:43:14;99450.66;;;4.90;72.31
61900;BME280;47853;55.890;37.664;2024-03-17T01:45:40;99463.91;;;5.10;70.25
61900;BME280;47853;55.890;37.664;2024-03-17T01:48:11;99453.69;;;5.16;70.78
61900;BME280;47853;55.890;37.664;2024-03-17T01:50:38;99446.34;;;5.20;69.27
61900;BME280;47853;55.890;37.664;2024-03-17T01:53:05;99461.66;;;5.05;68.54
61900;BME280;47853;55.890;37.664;2024-03-17T01:55:37;99456.63;;;5.02;70.68
61900;BME280;47853;55.890;37.664;2024-03-17T01:58:04;99450.34;;;5.14;68.99
61900;BME280;47853;55.890;37.664;2024-03-17T02:00:30;99433.94;;;5.83;67.84
61900;BME280;47853;55.890;37.664;2024-03-17T02:02:55;99448.72;;;5.54;66.08
61900;BME280;47853;55.890;37.664;2024-03-17T02:05:21;99444.00;;;6.18;64.57
61900;BME280;47853;55.890;37.664;2024-03-17T02:07:46;99442.31;;;6.57;62.06
61900;BME280;47853;55.890;37.664;2024-03-17T02:10:12;99443.31;;;6.46;61.71
61900;BME280;47853;55.890;37.664;2024-03-17T02:12:37;99440.81;;;5.54;65.10
61900;BME280;47853;55.890;37.664;2024-03-17T02:15:03;99445.41;;;5.00;66.95
61900;BME280;47853;55.890;37.664;2024-03-17T02:17:29;99432.22;;;4.15;72.87
61900;BME280;47853;55.890;37.664;2024-03-17T02:19:54;99421.97;;;4.87;71.02
61900;BME280;47853;55.890;37.664;2024-03-17T02:22:20;99432.84;;;4.82;72.19
61900;BME280;47853;55.890;37.664;2024-03-17T02:24:45;99432.97;;;4.81;71.86
61900;BME280;47853;55.890;37.664;2024-03-17T02:27:11;99442.16;;;4.86;72.71
61900;BME280;47853;55.890;37.664;2024-03-17T02:29:37;99430.28;;;4.28;76.23
61900;BME280;47853;55.890;37.664;2024-03-17T02:32:06;99441.75;;;4.27;77.51
61900;BME280;47853;55.890;37.664;2024-03-17T02:34:32;99417.38;;;4.25;78.26
61900;BME280;47853;55.890;37.664;2024-03-17T02:36:57;99429.09;;;4.54;73.73
61900;BME280;47853;55.890;37.664;2024-03-17T02:39:23;99422.84;;;4.01;78.53
61900;BME280;47853;55.890;37.664;2024-03-17T02:41:48;99425.59;;;3.55;80.68
61900;BME280;47853;55.890;37.664;2024-03-17T02:44:14;99420.75;;;4.48;77.92
61900;BME280;47853;55.890;37.664;2024-03-17T02:46:39;99419.38;;;4.33;77.54
61900;BME280;47853;55.890;37.664;2024-03-17T02:49:04;99413.28;;;4.75;75.67
61900;BME280;47853;55.890;37.664;2024-03-17T02:51:30;99402.81;;;4.21;75.43
61900;BME280;47853;55.890;37.664;2024-03-17T02:53:56;99399.31;;;5.36;73.65
61900;BME280;47853;55.890;37.664;2024-03-17T02:56:21;99387.59;;;4.88;71.30
61900;BME280;47853;55.890;37.664;2024-03-17T02:58:47;99412.81;;;5.22;71.47
61900;BME280;47853;55.890;37.664;2024-03-17T03:01:13;99415.06;;;4.74;73.47
61900;BME280;47853;55.890;37.664;2024-03-17T03:03:39;99416.56;;;4.67;72.93
61900;BME280;47853;55.890;37.664;2024-03-17T03:06:04;99423.41;;;4.58;76.82
61900;BME280;47853;55.890;37.664;2024-03-17T03:08:30;99421.75;;;4.36;76.84
61900;BME280;47853;55.890;37.664;2024-03-17T03:10:56;99408.06;;;3.88;78.80
61900;BME280;47853;55.890;37.664;2024-03-17T03:13:21;99409.03;;;4.20;78.23
61900;BME280;47853;55.890;37.664;2024-03-17T03:15:48;99408.16;;;3.98;79.73
61900;BME280;47853;55.890;37.664;2024-03-17T03:18:14;99419.50;;;4.31;78.17
61900;BME280;47853;55.890;37.664;2024-03-17T03:20:40;99398.59;;;3.97;79.47
61900;BME280;47853;55.890;37.664;2024-03-17T03:23:09;99412.59;;;3.98;80.22
61900;BME280;47853;55.890;37.664;2024-03-17T03:25:34;99385.50;;;3.86;79.80
61900;BME280;47853;55.890;37.664;2024-03-17T03:27:59;99402.16;;;3.52;83.25
61900;BME280;47853;55.890;37.664;2024-03-17T03:30:25;99404.38;;;4.66;79.96
61900;BME280;47853;55.890;37.664;2024-03-17T03:32:50;99388.72;;;4.22;79.22
61900;BME280;47853;55.890;37.664;2024-03-17T03:35:16;99393.78;;;4.56;76.92
61900;BME280;47853;55.890;37.664;2024-03-17T03:37:41;99385.13;;;4.87;73.81
61900;BME280;47853;55.890;37.664;2024-03-17T03:40:08;99404.81;;;4.29;77.88
61900;BME280;47853;55.890;37.664;2024-03-17T03:42:33;99397.69;;;4.19;77.27
61900;BME280;47853;55.890;37.664;2024-03-17T03:44:59;99400.00;;;4.34;79.85
61900;BME280;47853;55.890;37.664;2024-03-17T03:47:24;99387.69;;;3.69;81.63
61900;BME280;47853;55.890;37.664;2024-03-17T03:49:50;99386.47;;;4.17;79.92
61900;BME280;47853;55.890;37.664;2024-03-17T03:52:15;99387.09;;;4.10;80.70
61900;BME280;47853;55.890;37.664;2024-03-17T03:54:40;99386.88;;;4.01;78.55
61900;BME280;47853;55.890;37.664;2024-03-17T03:57:06;99386.16;;;4.53;79.13
61900;BME280;47853;55.890;37.664;2024-03-17T03:59:31;99391.09;;;3.92;78.85
61900;BME280;47853;55.890;37.664;2024-03-17T04:01:57;99386.25;;;4.09;83.20
61900;BME280;47853;55.890;37.664;2024-03-17T04:04:22;99379.38;;;4.29;82.13
61900;BME280;47853;55.890;37.664;2024-03-17T04:06:47;99383.19;;;4.04;80.73
61900;BME280;47853;55.890;37.664;2024-03-17T04:09:13;99378.91;;;4.24;80.56
61900;BME280;47853;55.890;37.664;2024-03-17T04:11:38;99378.97;;;4.34;80.01
61900;BME280;47853;55.890;37.664;2024-03-17T04:14:04;99376.19;;;4.78;77.11
61900;BME280;47853;55.890;37.664;2024-03-17T04:16:29;99393.00;;;3.90;77.08
61900;BME280;47853;55.890;37.664;2024-03-17T04:18:55;99386.84;;;4.34;78.48
61900;BME280;47853;55.890;37.664;2024-03-17T04:21:20;99392.00;;;4.35;79.31
61900;BME280;47853;55.890;37.664;2024-03-17T04:23:46;99385.84;;;4.25;76.13
61900;BME280;47853;55.890;37.664;2024-03-17T04:26:11;99382.56;;;4.33;79.45
61900;BME280;47853;55.890;37.664;2024-03-17T04:28:37;99358.94;;;4.64;76.89
61900;BME280;47853;55.890;37.664;2024-03-17T04:31:03;99371.47;;;4.72;75.24
61900;BME280;47853;55.890;37.664;2024-03-17T04:33:29;99378.56;;;4.17;79.69
61900;BME280;47853;55.890;37.664;2024-03-17T04:35:54;99368.69;;;4.31;78.38
61900;BME280;47853;55.890;37.664;2024-03-17T04:38:20;99367.88;;;4.30;79.43
61900;BME280;47853;55.890;37.664;2024-03-17T04:40:45;99362.94;;;4.89;77.71
61900;BME280;47853;55.890;37.664;2024-03-17T04:43:11;99380.25;;;4.61;77.17
61900;BME280;47853;55.890;37.664;2024-03-17T04:45:36;99350.88;;;4.13;79.44
61900;BME280;47853;55.890;37.664;2024-03-17T04:48:01;99362.88;;;4.27;79.96
61900;BME280;47853;55.890;37.664;2024-03-17T04:50:27;99366.38;;;4.80;76.54
61900;BME280;47853;55.890;37.664;2024-03-17T04:52:52;99364.09;;;4.66;75.20
61900;BME280;47853;55.890;37.664;2024-03-17T04:55:18;99355.25;;;4.67;76.00
61900;BME280;47853;55.890;37.664;2024-03-17T04:57:46;99362.72;;;5.43;72.50
61900;BME280;47853;55.890;37.664;2024-03-17T05:00:12;99363.13;;;5.48;69.50
61900;BME280;47853;55.890;37.664;2024-03-17T05:02:38;99360.97;;;5.93;68.52
61900;BME280;47853;55.890;37.664;2024-03-17T05:05:03;99363.22;;;6.47;67.02
61900;BME280;47853;55.890;37.664;2024-03-17T05:07:29;99378.31;;;7.02;61.00
61900;BME280;47853;55.890;37.664;2024-03-17T05:09:54;99364.88;;;6.18;62.90
61900;BME280;47853;55.890;37.664;2024-03-17T05:12:20;99383.19;;;6.59;61.65
61900;BME280;47853;55.890;37.664;2024-03-17T05:14:45;99374.19;;;7.00;60.90
61900;BME280;47853;55.890;37.664;2024-03-17T05:17:11;99376.84;;;6.80;60.11
61900;BME280;47853;55.890;37.664;2024-03-17T05:19:36;99381.00;;;7.58;56.76
61900;BME280;47853;55.890;37.664;2024-03-17T05:22:01;99381.31;;;7.17;57.07
61900;BME280;47853;55.890;37.664;2024-03-17T05:24:27;99386.31;;;7.48;56.89
61900;BME280;47853;55.890;37.664;2024-03-17T05:26:52;99382.28;;;7.16;56.79
61900;BME280;47853;55.890;37.664;2024-03-17T05:29:18;99389.69;;;7.68;56.77
61900;BME280;47853;55.890;37.664;2024-03-17T05:31:43;99373.47;;;7.81;54.77
61900;BME280;47853;55.890;37.664;2024-03-17T05:34:09;99382.53;;;7.97;54.30
61900;BME280;47853;55.890;37.664;2024-03-17T05:36:34;99392.78;;;8.36;53.05
61900;BME280;47853;55.890;37.664;2024-03-17T05:39:00;99382.13;;;8.64;51.02
61900;BME280;47853;55.890;37.664;2024-03-17T05:41:25;99382.88;;;8.38;52.16
61900;BME280;47853;55.890;37.664;2024-03-17T05:43:51;99386.91;;;8.06;53.94
61900;BME280;47853;55.890;37.664;2024-03-17T05:46:17;99387.13;;;8.31;51.26
61900;BME280;47853;55.890;37.664;2024-03-17T05:48:42;99386.50;;;9.08;50.74
61900;BME280;47853;55.890;37.664;2024-03-17T05:51:09;99384.13;;;9.32;50.82
61900;BME280;47853;55.890;37.664;2024-03-17T05:53:35;99382.03;;;9.52;48.96
61900;BME280;47853;55.890;37.664;2024-03-17T05:56:03;99394.81;;;8.61;49.68
61900;BME280;47853;55.890;37.664;2024-03-17T05:58:29;99383.81;;;8.29;51.72
61900;BME280;47853;55.890;37.664;2024-03-17T06:00:54;99383.63;;;9.96;48.58
61900;BME280;47853;55.890;37.664;2024-03-17T06:03:20;99390.19;;;8.89;49.77
61900;BME280;47853;55.890;37.664;2024-03-17T06:05:45;99375.22;;;8.72;51.08
61900;BME280;47853;55.890;37.664;2024-03-17T06:08:11;99382.09;;;8.02;52.40
61900;BME280;47853;55.890;37.664;2024-03-17T06:10:38;99384.09;;;8.44;51.42
61900;BME280;47853;55.890;37.664;2024-03-17T06:13:10;99383.97;;;10.01;48.19
61900;BME280;47853;55.890;37.664;2024-03-17T06:15:37;99379.00;;;10.31;47.96
61900;BME280;47853;55.890;37.664;2024-03-17T06:18:03;99381.31;;;10.84;46.32
61900;BME280;47853;55.890;37.664;2024-03-17T06:20:29;99379.84;;;10.73;45.01
61900;BME280;47853;55.890;37.664;2024-03-17T06:22:55;99360.75;;;10.11;45.51
61900;BME280;47853;55.890;37.664;2024-03-17T06:25:21;99372.38;;;10.60;45.26
61900;BME280;47853;55.890;37.664;2024-03-17T06:27:46;99366.41;;;10.50;45.22
61900;BME280;47853;55.890;37.664;2024-03-17T06:30:12;99369.03;;;10.74;44.61
61900;BME280;47853;55.890;37.664;2024-03-17T06:32:38;99374.69;;;10.30;45.79
61900;BME280;47853;55.890;37.664;2024-03-17T06:35:04;99373.03;;;9.96;47.44
61900;BME280;47853;55.890;37.664;2024-03-17T06:37:29;99370.66;;;9.25;47.77
61900;BME280;47853;55.890;37.664;2024-03-17T06:39:55;99371.06;;;10.48;46.44
61900;BME280;47853;55.890;37.664;2024-03-17T06:42:20;99377.91;;;9.14;47.89
61900;BME280;47853;55.890;37.664;2024-03-17T06:44:46;99376.94;;;8.89;49.55
61900;BME280;47853;55.890;37.664;2024-03-17T06:47:11;99374.53;;;9.39;49.81
61900;BME280;47853;55.890;37.664;2024-03-17T06:49:37;99373.72;;;8.51;51.42
61900;BME280;47853;55.890;37.664;2024-03-17T06:52:03;99371.00;;;8.61;52.88
61900;BME280;47853;55.890;37.664;2024-03-17T06:54:28;99367.97;;;9.51;49.25
61900;BME280;47853;55.890;37.664;2024-03-17T06:56:53;99367.22;;;10.58;47.88
61900;BME280;47853;55.890;37.664;2024-03-17T06:59:19;99367.72;;;10.37;47.24
61900;BME280;47853;55.890;37.664;2024-03-17T07:01:45;99379.28;;;9.70;48.70
61900;BME280;47853;55.890;37.664;2024-03-17T07:04:11;99379.97;;;10.80;46.26
61900;BME280;47853;55.890;37.664;2024-03-17T07:06:36;99353.56;;;10.86;45.95
61900;BME280;47853;55.890;37.664;2024-03-17T07:09:02;99361.72;;;10.68;46.41
61900;BME280;47853;55.890;37.664;2024-03-17T07:11:28;99363.09;;;12.69;43.11
61900;BME280;47853;55.890;37.664;2024-03-17T07:13:53;99347.28;;;13.27;40.79
61900;BME280;47853;55.890;37.664;2024-03-17T07:16:19;99356.78;;;13.88;38.67
61900;BME280;47853;55.890;37.664;2024-03-17T07:18:44;99356.38;;;14.35;37.68
61900;BME280;47853;55.890;37.664;2024-03-17T07:21:10;99355.53;;;14.56;36.72
61900;BME280;47853;55.890;37.664;2024-03-17T07:23:36;99352.75;;;14.43;37.33
61900;BME280;47853;55.890;37.664;2024-03-17T07:26:05;99357.03;;;14.37;37.97
61900;BME280;47853;55.890;37.664;2024-03-17T07:28:31;99345.19;;;15.10;36.88
61900;BME280;47853;55.890;37.664;2024-03-17T07:30:58;99347.56;;;14.63;36.93
61900;BME280;47853;55.890;37.664;2024-03-17T07:33:24;99356.09;;;14.23;37.32
61900;BME280;47853;55.890;37.664;2024-03-17T07:35:54;99350.63;;;14.88;36.88
61900;BME280;47853;55.890;37.664;2024-03-17T07:38:20;99340.47;;;15.12;36.38
61900;BME280;47853;55.890;37.664;2024-03-17T07:40:58;99347.38;;;14.64;37.24
61900;BME280;47853;55.890;37.664;2024-03-17T07:43:25;99352.91;;;14.34;37.10
61900;BME280;47853;55.890;37.664;2024-03-17T07:46:16;99350.53;;;12.39;41.61
61900;BME280;47853;55.890;37.664;2024-03-17T07:48:44;99341.53;;;11.47;43.33
61900;BME280;47853;55.890;37.664;2024-03-17T07:51:13;99338.47;;;10.87;45.17
61900;BME280;47853;55.890;37.664;2024-03-17T07:53:41;99349.09;;;11.58;44.91
61900;BME280;47853;55.890;37.664;2024-03-17T07:56:11;99337.88;;;10.02;50.23
61900;BME280;47853;55.890;37.664;2024-03-17T07:58:38;99327.06;;;10.37;50.59
61900;BME280;47853;55.890;37.664;2024-03-17T08:01:06;99345.13;;;10.83;48.92
61900;BME280;47853;55.890;37.664;2024-03-17T08:03:33;99350.97;;;9.95;50.71
61900;BME280;47853;55.890;37.664;2024-03-17T08:05:59;99342.78;;;10.80;50.50
61900;BME280;47853;55.890;37.664;2024-03-17T08:08:25;99349.97;;;10.54;50.98
61900;BME280;47853;55.890;37.664;2024-03-17T08:10:50;99342.34;;;9.85;52.68
61900;BME280;47853;55.890;37.664;2024-03-17T08:13:17;99337.66;;;9.62;54.02
61900;BME280;47853;55.890;37.664;2024-03-17T08:15:44;99328.88;;;9.70;54.82
61900;BME280;47853;55.890;37.664;2024-03-17T08:18:10;99340.63;;;9.59;56.50
61900;BME280;47853;55.890;37.664;2024-03-17T08:20:39;99345.78;;;9.18;58.31
61900;BME280;47853;55.890;37.664;2024-03-17T08:23:05;99339.06;;;8.89;59.80
61900;BME280;47853;55.890;37.664;2024-03-17T08:25:30;99342.50;;;10.25;55.37
61900;BME280;47853;55.890;37.664;2024-03-17T08:27:56;99331.16;;;8.97;59.11
61900;BME280;47853;55.890;37.664;2024-03-17T08:30:21;99338.41;;;9.38;59.14
61900;BME280;47853;55.890;37.664;2024-03-17T08:32:47;99334.50;;;9.07;60.58
61900;BME280;47853;55.890;37.664;2024-03-17T08:35:12;99342.00;;;9.96;57.89
61900;BME280;47853;55.890;37.664;2024-03-17T08:37:37;99325.78;;;9.23;59.47
61900;BME280;47853;55.890;37.664;2024-03-17T08:40:03;99340.47;;;9.09;62.27
61900;BME280;47853;55.890;37.664;2024-03-17T08:42:29;99331.97;;;8.45;64.08
61900;BME280;47853;55.890;37.664;2024-03-17T08:44:54;99326.84;;;9.47;61.37
61900;BME280;47853;55.890;37.664;2024-03-17T08:47:20;99324.59;;;9.85;59.60
61900;BME280;47853;55.890;37.664;2024-03-17T08:49:45;99320.41;;;9.58;57.85
61900;BME280;47853;55.890;37.664;2024-03-17T08:52:14;99290.69;;;8.07;63.38
61900;BME280;47853;55.890;37.664;2024-03-17T08:54:39;99328.22;;;8.74;64.75
61900;BME280;47853;55.890;37.664;2024-03-17T08:57:05;99317.06;;;8.96;63.01
61900;BME280;47853;55.890;37.664;2024-03-17T08:59:39;99323.50;;;8.85;62.31
61900;BME280;47853;55.890;37.664;2024-03-17T09:02:05;99323.44;;;9.88;56.83
61900;BME280;47853;55.890;37.664;2024-03-17T09:04:34;99304.88;;;9.88;56.25
61900;BME280;47853;55.890;37.664;2024-03-17T09:06:59;99327.91;;;10.21;55.67
61900;BME280;47853;55.890;37.664;2024-03-17T09:09:28;99313.97;;;10.19;54.97
61900;BME280;47853;55.890;37.664;2024-03-17T09:11:53;99332.38;;;10.04;55.55
61900;BME280;47853;55.890;37.664;2024-03-17T09:14:19;99330.88;;;10.67;52.42
61900;BME280;47853;55.890;37.664;2024-03-17T09:16:47;99325.56;;;9.76;54.13
61900;BME280;47853;55.890;37.664;2024-03-17T09:19:13;99318.47;;;10.10;53.56
61900;BME280;47853;55.890;37.664;2024-03-17T09:21:38;99318.28;;;9.70;54.62
61900;BME280;47853;55.890;37.664;2024-03-17T09:24:04;99311.16;;;10.28;54.24
61900;BME280;47853;55.890;37.664;2024-03-17T09:26:29;99313.81;;;9.95;54.48
61900;BME280;47853;55.890;37.664;2024-03-17T09:28:55;99324.88;;;10.73;52.23
61900;BME280;47853;55.890;37.664;2024-03-17T09:31:20;99329.88;;;9.85;53.17
61900;BME280;47853;55.890;37.664;2024-03-17T09:33:46;99311.78;;;9.64;56.85
61900;BME280;47853;55.890;37.664;2024-03-17T09:36:11;99323.28;;;10.39;53.47
61900;BME280;47853;55.890;37.664;2024-03-17T09:38:37;99333.63;;;10.91;51.63
61900;BME280;47853;55.890;37.664;2024-03-17T09:41:02;99307.16;;;11.06;50.72
61900;BME280;47853;55.890;37.664;2024-03-17T09:43:29;99321.22;;;11.23;49.99
61900;BME280;47853;55.890;37.664;2024-03-17T09:45:56;99321.88;;;10.85;48.65
61900;BME280;47853;55.890;37.664;2024-03-17T09:48:21;99329.22;;;11.14;48.92
61900;BME280;47853;55.890;37.664;2024-03-17T09:50:55;99309.84;;;11.60;48.33
61900;BME280;47853;55.890;37.664;2024-03-17T09:53:30;99315.63;;;10.53;52.69
61900;BME280;47853;55.890;37.664;2024-03-17T09:55:58;99326.81;;;11.59;49.08
61900;BME280;47853;55.890;37.664;2024-03-17T09:58:24;99330.31;;;11.60;48.06
61900;BME280;47853;55.890;37.664;2024-03-17T10:00:49;99325.94;;;11.44;48.26
61900;BME280;47853;55.890;37.664;2024-03-17T10:06:05;99316.00;;;12.31;46.33
61900;BME280;47853;55.890;37.664;2024-03-17T10:08:30;99317.50;;;11.87;45.96
61900;BME280;47853;55.890;37.664;2024-03-17T10:10:56;99301.72;;;12.47;44.77
61900;BME280;47853;55.890;37.664;2024-03-17T10:13:21;99297.66;;;14.42;41.72
61900;BME280;47853;55.890;37.664;2024-03-17T10:15:49;99292.63;;;13.38;41.87
61900;BME280;47853;55.890;37.664;2024-03-17T10:18:21;99298.31;;;14.15;40.62
61900;BME280;47853;55.890;37.664;2024-03-17T10:20:47;99293.06;;;13.05;42.28
61900;BME280;47853;55.890;37.664;2024-03-17T10:23:12;99301.50;;;11.72;45.09
61900;BME280;47853;55.890;37.664;2024-03-17T10:25:40;99295.25;;;12.41;44.56
61900;BME280;47853;55.890;37.664;2024-03-17T10:28:13;99301.22;;;11.82;45.64
61900;BME280;47853;55.890;37.664;2024-03-17T10:30:39;99299.63;;;11.96;45.94
61900;BME280;47853;55.890;37.664;2024-03-17T10:33:06;99287.28;;;12.41;44.27
61900;BME280;47853;55.890;37.664;2024-03-17T10:38:03;99289.22;;;10.59;49.71
61900;BME280;47853;55.890;37.664;2024-03-17T10:40:30;99289.59;;;10.40;49.07
61900;BME280;47853;55.890;37.664;2024-03-17T10:42:57;99287.13;;;9.72;54.08
61900;BME280;47853;55.890;37.664;2024-03-17T10:45:23;99295.41;;;10.27;53.42
61900;BME280;47853;55.890;37.664;2024-03-17T10:47:49;99303.28;;;9.36;55.76
61900;BME280;47853;55.890;37.664;2024-03-17T10:50:20;99282.47;;;10.15;53.00
61900;BME280;47853;55.890;37.664;2024-03-17T10:52:48;99278.97;;;10.32;51.10
61900;BME280;47853;55.890;37.664;2024-03-17T10:55:20;99265.16;;;9.12;56.71
61900;BME280;47853;55.890;37.664;2024-03-17T10:57:46;99276.63;;;9.29;58.72
61900;BME280;47853;55.890;37.664;2024-03-17T11:00:13;99275.66;;;10.38;54.54
61900;BME280;47853;55.890;37.664;2024-03-17T11:02:40;99274.38;;;10.17;52.97
61900;BME280;47853;55.890;37.664;2024-03-17T11:05:14;99283.38;;;10.72;52.27
61900;BME280;47853;55.890;37.664;2024-03-17T11:07:42;99272.66;;;10.97;51.93
61900;BME280;47853;55.890;37.664;2024-03-17T11:10:09;99277.75;;;8.22;59.86
61900;BME280;47853;55.890;37.664;2024-03-17T11:12:45;99277.22;;;9.14;60.53
61900;BME280;47853;55.890;37.664;2024-03-17T11:17:45;99270.50;;;10.53;55.03
61900;BME280;47853;55.890;37.664;2024-03-17T11:20:31;99281.44;;;10.58;52.17
61900;BME280;47853;55.890;37.664;2024-03-17T11:23:00;99277.19;;;8.98;58.97
61900;BME280;47853;55.890;37.664;2024-03-17T11:27:58;99274.97;;;8.85;60.76
61900;BME280;47853;55.890;37.664;2024-03-17T11:41:50;99259.75;;;10.05;54.45
61900;BME280;47853;55.890;37.664;2024-03-17T11:47:04;99248.84;;;9.91;55.36
61900;BME280;47853;55.890;37.664;2024-03-17T11:49:33;99256.75;;;10.24;54.94
61900;BME280;47853;55.890;37.664;2024-03-17T11:52:03;99256.94;;;10.14;54.67
61900;BME280;47853;55.890;37.664;2024-03-17T11:54:30;99255.63;;;9.77;54.85
61900;BME280;47853;55.890;37.664;2024-03-17T11:57:01;99254.44;;;9.38;57.13
61900;BME280;47853;55.890;37.664;2024-03-17T11:59:27;99254.97;;;10.00;54.87
61900;BME280;47853;55.890;37.664;2024-03-17T12:01:52;99248.94;;;9.23;59.96
61900;BME280;47853;55.890;37.664;2024-03-17T12:04:22;99262.28;;;8.97;63.91
61900;BME280;47853;55.890;37.664;2024-03-17T12:06:50;99247.97;;;8.20;65.08
61900;BME280;47853;55.890;37.664;2024-03-17T12:09:28;99253.81;;;9.78;60.47
61900;BME280;47853;55.890;37.664;2024-03-17T12:12:16;99246.97;;;10.41;56.10
61900;BME280;47853;55.890;37.664;2024-03-17T12:14:49;99257.44;;;10.26;55.69
61900;BME280;47853;55.890;37.664;2024-03-17T12:17:22;99261.81;;;8.40;63.68
61900;BME280;47853;55.890;37.664;2024-03-17T12:19:48;99256.59;;;8.83;64.08
61900;BME280;47853;55.890;37.664;2024-03-17T12:22:23;99255.47;;;8.94;63.52
61900;BME280;47853;55.890;37.664;2024-03-17T12:24:50;99254.22;;;9.07;64.58
61900;BME280;47853;55.890;37.664;2024-03-17T12:27:21;99258.09;;;8.86;63.53
61900;BME280;47853;55.890;37.664;2024-03-17T12:29:48;99256.19;;;8.35;68.43
61900;BME280;47853;55.890;37.664;2024-03-17T12:32:18;99265.16;;;7.72;72.23
61900;BME280;47853;55.890;37.664;2024-03-17T12:34:45;99248.31;;;7.73;73.84
61900;BME280;47853;55.890;37.664;2024-03-17T12:37:22;99252.81;;;7.98;74.97
61900;BME280;47853;55.890;37.664;2024-03-17T12:39:47;99260.56;;;8.00;73.99
61900;BME280;47853;55.890;37.664;2024-03-17T12:42:22;99257.94;;;8.53;71.07
61900;BME280;47853;55.890;37.664;2024-03-17T12:47:24;99246.63;;;8.69;67.93
61900;BME280;47853;55.890;37.664;2024-03-17T12:49:59;99244.41;;;8.99;65.91
61900;BME280;47853;55.890;37.664;2024-03-17T12:52:32;99236.13;;;8.94;67.43
61900;BME280;47853;55.890;37.664;2024-03-17T12:55:02;99251.94;;;8.77;65.82
61900;BME280;47853;55.890;37.664;2024-03-17T12:57:28;99233.63;;;8.23;69.18
61900;BME280;47853;55.890;37.664;2024-03-17T12:59:53;99228.56;;;9.16;65.98
61900;BME280;47853;55.890;37.664;2024-03-17T13:02:19;99237.75;;;9.63;62.44
61900;BME280;47853;55.890;37.664;2024-03-17T13:04:44;99222.03;;;8.85;66.60
61900;BME280;47853;55.890;37.664;2024-03-17T13:07:12;99228.00;;;7.55;74.61
61900;BME280;47853;55.890;37.664;2024-03-17T13:09:38;99235.16;;;8.07;70.23
61900;BME280;47853;55.890;37.664;2024-03-17T13:12:14;99235.31;;;8.32;73.39
61900;BME280;47853;55.890;37.664;2024-03-17T13:14:39;99241.66;;;8.13;70.61
61900;BME280;47853;55.890;37.664;2024-03-17T13:17:06;99246.88;;;7.78;74.39
61900;BME280;47853;55.890;37.664;2024-03-17T13:19:32;99235.72;;;7.93;74.75
61900;BME280;47853;55.890;37.664;2024-03-17T13:21:57;99238.91;;;7.96;72.69